createdAt,value
2016-08-09T00:00:04.716Z,1010.14
2016-08-09T00:01:04.694Z,1010.13
2016-08-09T00:02:04.672Z,1010.1
2016-08-09T00:03:04.650Z,1010.09
2016-08-09T00:04:04.629Z,1010.04
2016-08-09T00:05:04.612Z,1010.06
2016-08-09T00:06:04.585Z,1010.07
2016-08-09T00:07:04.564Z,1010.07
2016-08-09T00:08:04.543Z,1010.04
2016-08-09T00:09:04.520Z,1010
2016-08-09T00:10:04.500Z,1010.01
2016-08-09T00:11:04.478Z,1010.01
2016-08-09T00:12:04.457Z,1010.04
2016-08-09T00:13:04.434Z,1009.99
2016-08-09T00:14:04.413Z,1009.98
2016-08-09T00:15:04.392Z,1009.98
2016-08-09T00:16:04.370Z,1009.97
2016-08-09T00:17:04.350Z,1009.96
2016-08-09T00:18:04.327Z,1009.95
2016-08-09T00:19:04.305Z,1009.97
2016-08-09T00:20:04.283Z,1009.96
2016-08-09T00:21:04.262Z,1009.99
2016-08-09T00:22:04.241Z,1009.97
2016-08-09T00:23:04.220Z,1009.97
2016-08-09T00:24:04.198Z,1009.98
2016-08-09T00:25:04.175Z,1009.96
2016-08-09T00:26:04.156Z,1009.96
2016-08-09T00:27:04.135Z,1009.92
2016-08-09T00:28:04.111Z,1009.91
2016-08-09T00:29:04.091Z,1009.88
2016-08-09T00:30:04.070Z,1009.89
2016-08-09T00:31:04.046Z,1009.94
2016-08-09T00:33:04.002Z,1009.92
2016-08-09T00:34:03.981Z,1009.87
2016-08-09T00:35:03.959Z,1009.84
2016-08-09T00:36:03.940Z,1009.87
2016-08-09T00:37:03.916Z,1009.89
2016-08-09T00:38:03.895Z,1009.89
2016-08-09T00:39:03.873Z,1009.93
2016-08-09T00:40:03.858Z,1009.96
2016-08-09T00:41:03.829Z,1009.94
2016-08-09T00:42:03.807Z,1009.89
2016-08-09T00:43:03.786Z,1009.9
2016-08-09T00:44:03.764Z,1009.87
2016-08-09T00:45:03.744Z,1009.88
2016-08-09T00:46:03.722Z,1009.83
2016-08-09T00:48:03.679Z,1009.79
2016-08-09T00:49:03.657Z,1009.78
2016-08-09T00:50:03.636Z,1009.82
2016-08-09T00:51:03.615Z,1009.81
2016-08-09T00:52:03.592Z,1009.85
2016-08-09T00:53:03.571Z,1009.87
2016-08-09T00:54:03.549Z,1009.85
2016-08-09T00:55:03.528Z,1009.84
2016-08-09T00:56:03.506Z,1009.84
2016-08-09T00:57:03.483Z,1009.87
2016-08-09T00:58:03.461Z,1009.81
2016-08-09T00:59:03.441Z,1009.81
2016-08-09T01:00:03.419Z,1009.87
2016-08-09T01:01:03.397Z,1009.86
2016-08-09T01:02:03.375Z,1009.82
2016-08-09T01:03:03.354Z,1009.84
2016-08-09T01:04:03.332Z,1009.83
2016-08-09T01:05:03.310Z,1009.77
2016-08-09T01:06:03.288Z,1009.83
2016-08-09T01:07:03.266Z,1009.81
2016-08-09T01:08:03.246Z,1009.82
2016-08-09T01:09:03.224Z,1009.84
2016-08-09T01:10:03.203Z,1009.88
2016-08-09T01:11:03.179Z,1009.89
2016-08-09T01:12:03.158Z,1009.9
2016-08-09T01:13:03.136Z,1009.9
2016-08-09T01:14:03.114Z,1009.97
2016-08-09T01:15:03.092Z,1009.95
2016-08-09T01:16:03.071Z,1009.91
2016-08-09T01:17:03.051Z,1009.86
2016-08-09T01:18:03.029Z,1009.83
2016-08-09T01:19:03.006Z,1009.82
2016-08-09T01:20:02.986Z,1009.82
2016-08-09T01:21:02.963Z,1009.8
2016-08-09T01:22:02.940Z,1009.78
2016-08-09T01:23:02.918Z,1009.79
2016-08-09T01:24:02.896Z,1009.8
2016-08-09T01:25:02.876Z,1009.78
2016-08-09T01:26:02.853Z,1009.74
2016-08-09T01:27:02.833Z,1009.74
2016-08-09T01:28:02.811Z,1009.75
2016-08-09T01:29:02.791Z,1009.76
2016-08-09T01:30:02.792Z,1009.76
2016-08-09T01:31:02.744Z,1009.82
2016-08-09T01:32:02.722Z,1009.83
2016-08-09T01:33:02.700Z,1009.87
2016-08-09T01:34:02.680Z,1009.89
2016-08-09T01:35:02.658Z,1009.9
2016-08-09T01:36:02.637Z,1009.9
2016-08-09T01:37:02.614Z,1009.9
2016-08-09T01:38:02.593Z,1009.88
2016-08-09T01:39:02.572Z,1009.87
2016-08-09T01:40:02.549Z,1009.88
2016-08-09T01:41:02.527Z,1009.8
2016-08-09T01:42:02.516Z,1009.77
2016-08-09T01:43:02.484Z,1009.73
2016-08-09T01:44:02.462Z,1009.69
2016-08-09T01:45:02.440Z,1009.66
2016-08-09T01:46:02.419Z,1009.7
2016-08-09T01:47:02.397Z,1009.67
2016-08-09T01:48:02.376Z,1009.69
2016-08-09T01:49:02.353Z,1009.72
2016-08-09T01:50:02.332Z,1009.69
2016-08-09T01:51:02.310Z,1009.75
2016-08-09T01:52:02.290Z,1009.75
2016-08-09T01:53:02.266Z,1009.78
2016-08-09T01:54:02.245Z,1009.75
2016-08-09T01:55:02.223Z,1009.73
2016-08-09T01:56:02.200Z,1009.78
2016-08-09T01:57:02.179Z,1009.8
2016-08-09T01:58:02.157Z,1009.77
2016-08-09T01:59:02.136Z,1009.79
2016-08-09T02:00:02.115Z,1009.75
2016-08-09T02:01:02.093Z,1009.76
2016-08-09T02:02:02.078Z,1009.8
2016-08-09T02:03:02.049Z,1009.76
2016-08-09T02:04:02.028Z,1009.8
2016-08-09T02:05:02.005Z,1009.83
2016-08-09T02:06:01.983Z,1009.79
2016-08-09T02:07:01.963Z,1009.82
2016-08-09T02:08:01.941Z,1009.84
2016-08-09T02:09:01.918Z,1009.85
2016-08-09T02:10:01.897Z,1009.92
2016-08-09T02:11:01.875Z,1009.89
2016-08-09T02:12:01.854Z,1009.88
2016-08-09T02:13:01.831Z,1009.93
2016-08-09T02:14:01.808Z,1009.89
2016-08-09T02:15:01.789Z,1009.91
2016-08-09T02:16:01.768Z,1009.89
2016-08-09T02:17:01.744Z,1009.89
2016-08-09T02:18:01.728Z,1009.87
2016-08-09T02:19:01.701Z,1009.87
2016-08-09T02:20:01.680Z,1009.85
2016-08-09T02:21:01.657Z,1009.93
2016-08-09T02:22:01.635Z,1009.93
2016-08-09T02:23:01.614Z,1009.92
2016-08-09T02:24:01.594Z,1009.94
2016-08-09T02:25:01.571Z,1009.91
2016-08-09T02:26:01.550Z,1009.93
2016-08-09T02:27:01.528Z,1009.89
2016-08-09T02:28:01.505Z,1009.88
2016-08-09T02:29:01.483Z,1009.89
2016-08-09T02:30:01.462Z,1009.82
2016-08-09T02:31:01.442Z,1009.82
2016-08-09T02:32:01.419Z,1009.79
2016-08-09T02:33:01.397Z,1009.75
2016-08-09T02:34:01.376Z,1009.73
2016-08-09T02:35:01.354Z,1009.77
2016-08-09T02:36:01.332Z,1009.73
2016-08-09T02:37:01.310Z,1009.73
2016-08-09T02:38:01.289Z,1009.7
2016-08-09T02:39:01.266Z,1009.72
2016-08-09T02:40:01.245Z,1009.77
2016-08-09T02:41:01.224Z,1009.76
2016-08-09T02:42:01.203Z,1009.79
2016-08-09T02:43:01.179Z,1009.75
2016-08-09T02:44:01.158Z,1009.75
2016-08-09T02:45:01.136Z,1009.74
2016-08-09T02:46:01.113Z,1009.75
2016-08-09T02:47:01.093Z,1009.73
2016-08-09T02:48:01.070Z,1009.73
2016-08-09T02:49:01.049Z,1009.75
2016-08-09T02:50:01.026Z,1009.75
2016-08-09T02:51:01.006Z,1009.73
2016-08-09T02:52:00.983Z,1009.74
2016-08-09T02:53:00.962Z,1009.74
2016-08-09T02:54:00.939Z,1009.77
2016-08-09T02:55:00.917Z,1009.75
2016-08-09T02:56:00.898Z,1009.77
2016-08-09T02:57:00.873Z,1009.77
2016-08-09T02:58:00.852Z,1009.78
2016-08-09T02:59:00.833Z,1009.74
2016-08-09T03:00:00.809Z,1009.79
2016-08-09T03:01:00.793Z,1009.76
2016-08-09T03:02:00.765Z,1009.76
2016-08-09T03:03:00.744Z,1009.76
2016-08-09T03:04:00.722Z,1009.76
2016-08-09T03:05:00.700Z,1009.77
2016-08-09T03:06:00.678Z,1009.71
2016-08-09T03:07:00.658Z,1009.76
2016-08-09T03:08:00.637Z,1009.7
2016-08-09T03:09:00.613Z,1009.73
2016-08-09T03:10:00.592Z,1009.73
2016-08-09T03:11:00.570Z,1009.74
2016-08-09T03:12:00.547Z,1009.69
2016-08-09T03:13:00.527Z,1009.71
2016-08-09T03:14:00.505Z,1009.68
2016-08-09T03:15:00.484Z,1009.69
2016-08-09T03:16:00.462Z,1009.71
2016-08-09T03:17:00.441Z,1009.73
2016-08-09T03:18:00.419Z,1009.71
2016-08-09T03:19:00.398Z,1009.69
2016-08-09T03:20:00.374Z,1009.75
2016-08-09T03:21:00.353Z,1009.72
2016-08-09T03:22:00.333Z,1009.73
2016-08-09T03:23:00.309Z,1009.74
2016-08-09T03:24:00.288Z,1009.72
2016-08-09T03:25:00.268Z,1009.73
2016-08-09T03:26:00.245Z,1009.74
2016-08-09T03:27:00.223Z,1009.77
2016-08-09T03:28:00.201Z,1009.74
2016-08-09T03:29:00.180Z,1009.76
2016-08-09T03:30:00.158Z,1009.74
2016-08-09T03:31:00.137Z,1009.76
2016-08-09T03:32:00.115Z,1009.77
2016-08-09T03:33:00.094Z,1009.76
2016-08-09T03:34:00.072Z,1009.76
2016-08-09T03:35:00.050Z,1009.79
2016-08-09T03:36:00.028Z,1009.77
2016-08-09T03:37:00.007Z,1009.79
2016-08-09T03:37:59.985Z,1009.77
2016-08-09T03:38:59.963Z,1009.72
2016-08-09T03:39:59.942Z,1009.71
2016-08-09T03:40:59.920Z,1009.75
2016-08-09T03:41:59.898Z,1009.76
2016-08-09T03:42:59.877Z,1009.79
2016-08-09T03:43:59.855Z,1009.77
2016-08-09T03:44:59.833Z,1009.8
2016-08-09T03:45:59.812Z,1009.79
2016-08-09T03:46:59.796Z,1009.81
2016-08-09T03:47:59.769Z,1009.8
2016-08-09T03:48:59.747Z,1009.82
2016-08-09T03:49:59.725Z,1009.77
2016-08-09T03:50:59.707Z,1009.81
2016-08-09T03:51:59.681Z,1009.76
2016-08-09T03:52:59.659Z,1009.78
2016-08-09T03:53:59.689Z,1009.78
2016-08-09T03:54:59.616Z,1009.78
2016-08-09T03:55:59.594Z,1009.81
2016-08-09T03:56:59.573Z,1009.74
2016-08-09T03:57:59.553Z,1009.76
2016-08-09T03:58:59.535Z,1009.77
2016-08-09T03:59:59.508Z,1009.76
2016-08-09T04:00:59.493Z,1009.75
2016-08-09T04:01:59.466Z,1009.73
2016-08-09T04:02:59.443Z,1009.7
2016-08-09T04:03:59.422Z,1009.71
2016-08-09T04:04:59.402Z,1009.68
2016-08-09T04:05:59.380Z,1009.69
2016-08-09T04:06:59.358Z,1009.66
2016-08-09T04:07:59.337Z,1009.65
2016-08-09T04:08:59.313Z,1009.67
2016-08-09T04:09:59.291Z,1009.68
2016-08-09T04:10:59.272Z,1009.76
2016-08-09T04:11:59.249Z,1009.78
2016-08-09T04:12:59.227Z,1009.8
2016-08-09T04:13:59.595Z,1009.84
2016-08-09T04:14:59.183Z,1009.87
2016-08-09T04:15:59.163Z,1009.89
2016-08-09T04:16:59.141Z,1009.89
2016-08-09T04:17:59.117Z,1009.87
2016-08-09T04:18:59.097Z,1009.83
2016-08-09T04:19:59.075Z,1009.81
2016-08-09T04:20:59.053Z,1009.88
2016-08-09T04:21:59.031Z,1009.87
2016-08-09T04:22:59.009Z,1009.88
2016-08-09T04:23:58.989Z,1009.88
2016-08-09T04:24:58.965Z,1009.96
2016-08-09T04:25:58.943Z,1009.96
2016-08-09T04:26:59.052Z,1010.02
2016-08-09T04:27:58.900Z,1010.05
2016-08-09T04:28:58.880Z,1010.06
2016-08-09T04:29:58.863Z,1010.09
2016-08-09T04:30:58.871Z,1010.09
2016-08-09T04:31:58.814Z,1010.1
2016-08-09T04:32:58.793Z,1010.14
2016-08-09T04:33:58.775Z,1010.09
2016-08-09T04:34:58.749Z,1010.12
2016-08-09T04:35:58.727Z,1010.13
2016-08-09T04:36:58.706Z,1010.13
2016-08-09T04:37:58.785Z,1010.18
2016-08-09T04:38:58.663Z,1010.16
2016-08-09T04:39:58.641Z,1010.17
2016-08-09T04:40:58.621Z,1010.17
2016-08-09T04:41:58.600Z,1010.2
2016-08-09T04:42:58.576Z,1010.21
2016-08-09T04:43:58.555Z,1010.25
2016-08-09T04:44:58.534Z,1010.24
2016-08-09T04:45:58.513Z,1010.26
2016-08-09T04:46:58.491Z,1010.26
2016-08-09T04:47:58.470Z,1010.25
2016-08-09T04:48:58.448Z,1010.25
2016-08-09T04:49:58.429Z,1010.29
2016-08-09T04:50:58.406Z,1010.3
2016-08-09T04:51:58.384Z,1010.35
2016-08-09T04:52:58.364Z,1010.35
2016-08-09T04:53:58.341Z,1010.35
2016-08-09T04:54:58.320Z,1010.29
2016-08-09T04:55:58.299Z,1010.3
2016-08-09T04:56:58.281Z,1010.29
2016-08-09T04:57:58.260Z,1010.28
2016-08-09T04:58:58.234Z,1010.3
2016-08-09T04:59:58.213Z,1010.25
2016-08-09T05:00:58.192Z,1010.26
2016-08-09T05:01:58.170Z,1010.21
2016-08-09T05:02:58.147Z,1010.14
2016-08-09T05:03:58.127Z,1010.12
2016-08-09T05:04:58.102Z,1010.08
2016-08-09T05:05:58.081Z,1010.08
2016-08-09T05:06:58.092Z,1010.1
2016-08-09T05:07:58.039Z,1010.11
2016-08-09T05:08:58.026Z,1010.12
2016-08-09T05:09:58.012Z,1010.08
2016-08-09T05:10:57.972Z,1010.06
2016-08-09T05:11:57.958Z,1010
2016-08-09T05:12:57.930Z,1009.94
2016-08-09T05:13:57.908Z,1009.92
2016-08-09T05:14:57.885Z,1009.92
2016-08-09T05:15:57.865Z,1009.97
2016-08-09T05:16:57.842Z,1009.95
2016-08-09T05:17:57.823Z,1009.99
2016-08-09T05:18:57.798Z,1009.97
2016-08-09T05:19:57.776Z,1010.01
2016-08-09T05:20:57.754Z,1009.99
2016-08-09T05:21:57.733Z,1010.03
2016-08-09T05:22:57.712Z,1010.02
2016-08-09T05:23:57.692Z,1010.03
2016-08-09T05:24:57.687Z,1010.06
2016-08-09T05:25:57.647Z,1010
2016-08-09T05:26:57.624Z,1010.01
2016-08-09T05:27:57.602Z,1010.01
2016-08-09T05:28:57.581Z,1010
2016-08-09T05:29:57.558Z,1010
2016-08-09T05:30:57.536Z,1010.01
2016-08-09T05:31:57.516Z,1010
2016-08-09T05:33:57.474Z,1010.03
2016-08-09T05:34:57.453Z,1010.03
2016-08-09T05:35:57.432Z,1010.02
2016-08-09T05:36:57.512Z,1010.06
2016-08-09T05:37:57.388Z,1010.01
2016-08-09T05:38:57.367Z,1010.02
2016-08-09T05:39:57.345Z,1010.03
2016-08-09T05:40:57.323Z,1009.98
2016-08-09T05:41:57.302Z,1010.02
2016-08-09T05:42:57.283Z,1010.02
2016-08-09T05:43:57.259Z,1010.02
2016-08-09T05:44:57.238Z,1010.04
2016-08-09T05:45:57.216Z,1010.04
2016-08-09T05:46:57.195Z,1010.08
2016-08-09T05:47:57.173Z,1010.1
2016-08-09T05:48:57.151Z,1010.08
2016-08-09T05:49:57.129Z,1010.14
2016-08-09T05:50:57.110Z,1010.12
2016-08-09T05:51:57.087Z,1010.19
2016-08-09T05:52:57.066Z,1010.2
2016-08-09T05:53:57.045Z,1010.24
2016-08-09T05:54:57.023Z,1010.27
2016-08-09T05:55:57.001Z,1010.28
2016-08-09T05:56:57.087Z,1010.27
2016-08-09T05:57:56.959Z,1010.28
2016-08-09T05:58:56.937Z,1010.3
2016-08-09T05:59:56.915Z,1010.35
2016-08-09T06:00:56.893Z,1010.32
2016-08-09T06:01:56.872Z,1010.33
2016-08-09T06:02:56.853Z,1010.36
2016-08-09T06:03:56.830Z,1010.28
2016-08-09T06:04:56.811Z,1010.31
2016-08-09T06:05:56.841Z,1010.37
2016-08-09T06:06:56.768Z,1010.37
2016-08-09T06:07:56.747Z,1010.32
2016-08-09T06:08:56.729Z,1010.3
2016-08-09T06:09:56.708Z,1010.3
2016-08-09T06:10:56.687Z,1010.28
2016-08-09T06:11:56.695Z,1010.29
2016-08-09T06:12:56.647Z,1010.27
2016-08-09T06:13:56.629Z,1010.31
2016-08-09T06:14:56.608Z,1010.32
2016-08-09T06:15:56.590Z,1010.32
2016-08-09T06:16:56.598Z,1010.35
2016-08-09T06:17:56.600Z,1010.36
2016-08-09T06:18:56.531Z,1010.42
2016-08-09T06:19:56.566Z,1010.36
2016-08-09T06:20:56.494Z,1010.36
2016-08-09T06:21:56.473Z,1010.33
2016-08-09T06:22:56.454Z,1010.34
2016-08-09T06:23:56.436Z,1010.34
2016-08-09T06:24:56.418Z,1010.28
2016-08-09T06:25:56.434Z,1010.33
2016-08-09T06:26:56.380Z,1010.34
2016-08-09T06:27:56.363Z,1010.38
2016-08-09T06:28:56.342Z,1010.33
2016-08-09T06:29:56.325Z,1010.39
2016-08-09T06:30:56.307Z,1010.36
2016-08-09T06:31:56.560Z,1010.37
2016-08-09T06:32:56.272Z,1010.43
2016-08-09T06:33:56.253Z,1010.43
2016-08-09T06:34:56.235Z,1010.48
2016-08-09T06:35:56.218Z,1010.49
2016-08-09T06:36:56.201Z,1010.55
2016-08-09T06:37:56.182Z,1010.56
2016-08-09T06:38:56.268Z,1010.57
2016-08-09T06:39:56.149Z,1010.55
2016-08-09T06:40:56.130Z,1010.56
2016-08-09T06:41:56.114Z,1010.57
2016-08-09T06:42:56.100Z,1010.56
2016-08-09T06:43:56.135Z,1010.57
2016-08-09T06:44:56.195Z,1010.57
2016-08-09T06:45:56.043Z,1010.58
2016-08-09T06:46:56.027Z,1010.55
2016-08-09T06:47:56.008Z,1010.6
2016-08-09T06:48:55.990Z,1010.54
2016-08-09T06:52:55.919Z,1010.52
2016-08-09T06:53:55.901Z,1010.53
2016-08-09T06:54:56.002Z,1010.54
2016-08-09T06:55:55.888Z,1010.56
2016-08-09T06:56:56.196Z,1010.58
2016-08-09T06:57:55.830Z,1010.54
2016-08-09T06:58:55.812Z,1010.62
2016-08-09T06:59:55.793Z,1010.56
2016-08-09T07:00:55.970Z,1010.56
2016-08-09T07:01:55.756Z,1010.59
2016-08-09T07:02:55.739Z,1010.59
2016-08-09T07:03:55.722Z,1010.59
2016-08-09T07:04:55.783Z,1010.61
2016-08-09T07:05:56.020Z,1010.57
2016-08-09T07:06:55.849Z,1010.6
2016-08-09T07:07:55.652Z,1010.59
2016-08-09T07:08:55.766Z,1010.62
2016-08-09T07:09:55.626Z,1010.62
2016-08-09T07:10:55.689Z,1010.6
2016-08-09T07:11:55.576Z,1010.65
2016-08-09T07:12:55.557Z,1010.64
2016-08-09T07:13:55.542Z,1010.59
2016-08-09T07:14:55.528Z,1010.53
2016-08-09T07:15:55.506Z,1010.55
2016-08-09T07:16:55.566Z,1010.41
2016-08-09T07:17:55.493Z,1010.49
2016-08-09T07:18:55.454Z,1010.5
2016-08-09T07:19:55.438Z,1010.5
2016-08-09T07:20:55.570Z,1010.46
2016-08-09T07:21:55.636Z,1010.38
2016-08-09T07:22:55.420Z,1010.39
2016-08-09T07:23:55.671Z,1010.42
2016-08-09T07:24:55.357Z,1010.43
2016-08-09T07:25:55.400Z,1010.41
2016-08-09T07:26:55.353Z,1010.43
2016-08-09T07:27:55.361Z,1010.42
2016-08-09T07:28:55.293Z,1010.42
2016-08-09T07:29:55.276Z,1010.47
2016-08-09T07:30:55.323Z,1010.46
2016-08-09T07:31:55.245Z,1010.46
2016-08-09T07:32:55.263Z,1010.42
2016-08-09T07:33:55.398Z,1010.42
2016-08-09T07:34:55.199Z,1010.35
2016-08-09T07:35:55.186Z,1010.43
2016-08-09T07:36:55.171Z,1010.44
2016-08-09T07:37:55.162Z,1010.43
2016-08-09T07:38:55.141Z,1010.43
2016-08-09T07:39:55.184Z,1010.47
2016-08-09T07:40:55.404Z,1010.47
2016-08-09T07:41:55.097Z,1010.53
2016-08-09T07:42:55.082Z,1010.52
2016-08-09T07:43:55.075Z,1010.5
2016-08-09T07:44:55.054Z,1010.63
2016-08-09T07:45:55.043Z,1010.53
2016-08-09T07:46:55.023Z,1010.59
2016-08-09T07:47:55.060Z,1010.56
2016-08-09T07:48:55.149Z,1010.55
2016-08-09T07:49:55.219Z,1010.6
2016-08-09T07:50:55.015Z,1010.56
2016-08-09T07:51:54.948Z,1010.56
2016-08-09T07:52:54.934Z,1010.56
2016-08-09T07:53:54.918Z,1010.6
2016-08-09T07:54:54.903Z,1010.58
2016-08-09T07:55:54.894Z,1010.6
2016-08-09T07:56:55.183Z,1010.59
2016-08-09T07:57:55.150Z,1010.56
2016-08-09T07:58:55.152Z,1010.54
2016-08-09T07:59:54.829Z,1010.58
2016-08-09T08:00:55.040Z,1010.58
2016-08-09T08:01:55.008Z,1010.56
2016-08-09T08:02:55.292Z,1010.6
2016-08-09T08:03:54.946Z,1010.61
2016-08-09T08:04:55.059Z,1010.66
2016-08-09T08:05:54.982Z,1010.68
2016-08-09T08:06:54.864Z,1010.63
2016-08-09T08:07:54.779Z,1010.63
2016-08-09T08:08:54.703Z,1010.63
2016-08-09T08:09:54.690Z,1010.7
2016-08-09T08:10:54.678Z,1010.65
2016-08-09T08:11:54.728Z,1010.74
2016-08-09T08:12:54.651Z,1010.67
2016-08-09T08:13:54.635Z,1010.68
2016-08-09T08:14:54.624Z,1010.69
2016-08-09T08:15:54.612Z,1010.63
2016-08-09T08:16:54.597Z,1010.64
2016-08-09T08:17:54.808Z,1010.71
2016-08-09T08:18:54.801Z,1010.66
2016-08-09T08:19:54.836Z,1010.63
2016-08-09T08:20:54.889Z,1010.65
2016-08-09T08:21:54.537Z,1010.59
2016-08-09T08:22:54.566Z,1010.61
2016-08-09T08:23:54.749Z,1010.62
2016-08-09T08:24:54.570Z,1010.56
2016-08-09T08:25:54.625Z,1010.57
2016-08-09T08:26:54.526Z,1010.64
2016-08-09T08:27:54.457Z,1010.65
2016-08-09T08:28:54.451Z,1010.65
2016-08-09T08:29:54.542Z,1010.62
2016-08-09T08:30:54.485Z,1010.66
2016-08-09T08:31:54.651Z,1010.63
2016-08-09T08:32:54.530Z,1010.67
2016-08-09T08:33:54.556Z,1010.7
2016-08-09T08:34:54.653Z,1010.6
2016-08-09T08:35:54.423Z,1010.65
2016-08-09T08:36:54.603Z,1010.63
2016-08-09T08:37:54.340Z,1010.64
2016-08-09T08:38:54.444Z,1010.61
2016-08-09T08:39:54.567Z,1010.59
2016-08-09T08:40:54.499Z,1010.64
2016-08-09T08:41:54.406Z,1010.63
2016-08-09T08:42:54.369Z,1010.66
2016-08-09T08:43:54.315Z,1010.65
2016-08-09T08:44:54.460Z,1010.6
2016-08-09T08:45:54.256Z,1010.64
2016-08-09T08:46:54.262Z,1010.58
2016-08-09T08:47:54.371Z,1010.66
2016-08-09T08:48:54.227Z,1010.66
2016-08-09T08:49:54.217Z,1010.6
2016-08-09T08:50:54.205Z,1010.66
2016-08-09T08:51:54.196Z,1010.66
2016-08-09T08:52:54.232Z,1010.58
2016-08-09T08:53:54.179Z,1010.69
2016-08-09T08:54:54.383Z,1010.66
2016-08-09T08:55:54.157Z,1010.64
2016-08-09T08:56:54.460Z,1010.61
2016-08-09T08:57:54.379Z,1010.61
2016-08-09T08:58:54.165Z,1010.65
2016-08-09T08:59:54.253Z,1010.66
2016-08-09T09:00:54.226Z,1010.61
2016-08-09T09:01:54.254Z,1010.62
2016-08-09T09:02:54.088Z,1010.61
2016-08-09T09:04:54.219Z,1010.61
2016-08-09T09:05:54.060Z,1010.55
2016-08-09T09:06:54.164Z,1010.56
2016-08-09T09:07:54.151Z,1010.65
2016-08-09T09:08:54.105Z,1010.54
2016-08-09T09:09:54.023Z,1010.55
2016-08-09T09:10:54.011Z,1010.55
2016-08-09T09:11:54.005Z,1010.54
2016-08-09T09:12:53.993Z,1010.55
2016-08-09T09:13:54.299Z,1010.54
2016-08-09T09:14:54.105Z,1010.5
2016-08-09T09:15:54.106Z,1010.44
2016-08-09T09:16:53.953Z,1010.47
2016-08-09T09:17:54.194Z,1010.41
2016-08-09T09:19:54.193Z,1010.49
2016-08-09T09:20:53.921Z,1010.47
2016-08-09T09:21:53.926Z,1010.51
2016-08-09T09:22:53.895Z,1010.48
2016-08-09T09:23:53.907Z,1010.43
2016-08-09T09:24:53.943Z,1010.46
2016-08-09T09:25:54.146Z,1010.41
2016-08-09T09:26:53.861Z,1010.44
2016-08-09T09:27:53.953Z,1010.46
2016-08-09T09:28:53.840Z,1010.53
2016-08-09T09:29:53.939Z,1010.55
2016-08-09T09:30:53.826Z,1010.51
2016-08-09T09:31:53.813Z,1010.74
2016-08-09T09:32:53.896Z,1010.59
2016-08-09T09:34:53.776Z,1010.77
2016-08-09T09:35:54.069Z,1010.74
2016-08-09T09:36:53.751Z,1010.71
2016-08-09T09:37:53.737Z,1010.66
2016-08-09T09:38:53.723Z,1010.79
2016-08-09T09:39:53.756Z,1010.72
2016-08-09T09:40:53.915Z,1010.7
2016-08-09T09:41:53.681Z,1010.71
2016-08-09T09:42:53.897Z,1010.72
2016-08-09T09:43:53.652Z,1010.74
2016-08-09T09:44:53.634Z,1010.71
2016-08-09T09:45:53.766Z,1010.73
2016-08-09T09:46:53.850Z,1010.68
2016-08-09T09:47:53.590Z,1010.65
2016-08-09T09:48:53.622Z,1010.65
2016-08-09T09:49:53.663Z,1010.72
2016-08-09T09:50:53.618Z,1010.68
2016-08-09T09:51:53.536Z,1010.66
2016-08-09T09:52:53.523Z,1010.72
2016-08-09T09:53:53.509Z,1010.75
2016-08-09T09:54:53.573Z,1010.67
2016-08-09T09:55:53.483Z,1010.67
2016-08-09T09:56:53.530Z,1010.69
2016-08-09T09:57:53.574Z,1010.77
2016-08-09T09:58:53.447Z,1010.69
2016-08-09T09:59:53.440Z,1010.69
2016-08-09T10:00:53.514Z,1010.71
2016-08-09T10:01:53.400Z,1010.7
2016-08-09T10:02:53.394Z,1010.68
2016-08-09T10:03:53.447Z,1010.73
2016-08-09T10:04:53.360Z,1010.66
2016-08-09T10:05:53.368Z,1010.73
2016-08-09T10:06:53.335Z,1010.84
2016-08-09T10:07:53.325Z,1010.85
2016-08-09T10:08:53.307Z,1010.85
2016-08-09T10:09:53.297Z,1010.89
2016-08-09T10:10:53.671Z,1010.82
2016-08-09T10:11:53.266Z,1010.89
2016-08-09T10:12:53.251Z,1010.94
2016-08-09T10:13:53.249Z,1010.86
2016-08-09T10:14:53.222Z,1010.84
2016-08-09T10:15:53.205Z,1010.83
2016-08-09T10:16:53.193Z,1010.79
2016-08-09T10:17:53.177Z,1010.79
2016-08-09T10:18:53.161Z,1010.76
2016-08-09T10:19:53.154Z,1010.74
2016-08-09T10:20:53.403Z,1010.8
2016-08-09T10:21:53.119Z,1010.74
2016-08-09T10:22:53.104Z,1010.71
2016-08-09T10:23:53.090Z,1010.64
2016-08-09T10:24:53.076Z,1010.66
2016-08-09T10:25:53.062Z,1010.65
2016-08-09T10:26:53.051Z,1010.65
2016-08-09T10:27:53.040Z,1010.67
2016-08-09T10:28:53.161Z,1010.67
2016-08-09T10:29:53.010Z,1010.64
2016-08-09T10:30:52.998Z,1010.62
2016-08-09T10:31:52.984Z,1010.7
2016-08-09T10:32:52.970Z,1010.7
2016-08-09T10:33:52.957Z,1010.74
2016-08-09T10:34:52.948Z,1010.63
2016-08-09T10:35:52.933Z,1010.78
2016-08-09T10:36:52.919Z,1010.67
2016-08-09T10:37:52.927Z,1010.7
2016-08-09T10:38:53.010Z,1010.7
2016-08-09T10:39:52.874Z,1010.72
2016-08-09T10:40:52.916Z,1010.72
2016-08-09T10:41:52.845Z,1010.7
2016-08-09T10:42:52.832Z,1010.61
2016-08-09T10:43:52.815Z,1010.64
2016-08-09T10:44:52.799Z,1010.68
2016-08-09T10:45:52.785Z,1010.71
2016-08-09T10:46:53.026Z,1010.52
2016-08-09T10:47:52.756Z,1010.65
2016-08-09T10:48:52.765Z,1010.57
2016-08-09T10:49:52.743Z,1010.53
2016-08-09T10:50:52.710Z,1010.54
2016-08-09T10:51:52.728Z,1010.48
2016-08-09T10:52:52.794Z,1010.51
2016-08-09T10:53:52.663Z,1010.51
2016-08-09T10:54:52.645Z,1010.48
2016-08-09T10:55:52.628Z,1010.54
2016-08-09T10:56:52.613Z,1010.49
2016-08-09T10:57:52.597Z,1010.49
2016-08-09T10:58:52.581Z,1010.54
2016-08-09T10:59:52.563Z,1010.57
2016-08-09T11:00:52.548Z,1010.44
2016-08-09T11:01:52.669Z,1010.51
2016-08-09T11:02:52.514Z,1010.49
2016-08-09T11:03:52.630Z,1010.52
2016-08-09T11:04:52.528Z,1010.51
2016-08-09T11:05:53.035Z,1010.5
2016-08-09T11:06:52.449Z,1010.49
2016-08-09T11:07:52.698Z,1010.46
2016-08-09T11:08:52.478Z,1010.54
2016-08-09T11:09:52.401Z,1010.48
2016-08-09T11:10:52.437Z,1010.45
2016-08-09T11:11:52.369Z,1010.43
2016-08-09T11:12:52.388Z,1010.46
2016-08-09T11:13:52.343Z,1010.4
2016-08-09T11:14:52.323Z,1010.48
2016-08-09T11:15:52.305Z,1010.47
2016-08-09T11:16:52.291Z,1010.46
2016-08-09T11:17:52.287Z,1010.41
2016-08-09T11:18:52.551Z,1010.4
2016-08-09T11:19:52.429Z,1010.49
2016-08-09T11:20:52.549Z,1010.43
2016-08-09T11:21:52.265Z,1010.41
2016-08-09T11:22:52.201Z,1010.54
2016-08-09T11:23:52.185Z,1010.47
2016-08-09T11:24:52.205Z,1010.43
2016-08-09T11:25:52.155Z,1010.43
2016-08-09T11:26:52.143Z,1010.44
2016-08-09T11:27:52.128Z,1010.51
2016-08-09T11:28:52.123Z,1010.42
2016-08-09T11:29:52.094Z,1010.45
2016-08-09T11:30:52.081Z,1010.44
2016-08-09T11:31:52.116Z,1010.44
2016-08-09T11:32:52.297Z,1010.42
2016-08-09T11:33:52.193Z,1010.53
2016-08-09T11:34:52.035Z,1010.43
2016-08-09T11:35:52.299Z,1010.48
2016-08-09T11:36:51.992Z,1010.48
2016-08-09T11:37:52.226Z,1010.57
2016-08-09T11:38:52.338Z,1010.49
2016-08-09T11:39:52.225Z,1010.55
2016-08-09T11:40:52.083Z,1010.54
2016-08-09T11:41:52.028Z,1010.53
2016-08-09T11:42:52.001Z,1010.57
2016-08-09T11:43:51.989Z,1010.52
2016-08-09T11:44:51.891Z,1010.54
2016-08-09T11:45:51.878Z,1010.56
2016-08-09T11:46:51.844Z,1010.54
2016-08-09T11:47:51.835Z,1010.6
2016-08-09T11:48:51.816Z,1010.57
2016-08-09T11:49:51.801Z,1010.6
2016-08-09T11:50:51.787Z,1010.56
2016-08-09T11:51:51.773Z,1010.64
2016-08-09T11:52:52.005Z,1010.62
2016-08-09T11:53:51.745Z,1010.64
2016-08-09T11:54:51.731Z,1010.63
2016-08-09T11:55:51.738Z,1010.7
2016-08-09T11:56:51.702Z,1010.63
2016-08-09T11:57:51.957Z,1010.62
2016-08-09T11:58:51.763Z,1010.61
2016-08-09T11:59:51.895Z,1010.64
2016-08-09T12:00:51.832Z,1010.61
2016-08-09T12:01:51.977Z,1010.7
2016-08-09T12:02:51.736Z,1010.64
2016-08-09T12:03:51.874Z,1010.61
2016-08-09T12:04:51.848Z,1010.58
2016-08-09T12:05:51.803Z,1010.67
2016-08-09T12:06:51.875Z,1010.55
2016-08-09T12:07:51.676Z,1010.65
2016-08-09T12:08:51.679Z,1010.62
2016-08-09T12:09:51.641Z,1010.63
2016-08-09T12:10:51.508Z,1010.62
2016-08-09T12:11:51.492Z,1010.69
2016-08-09T12:12:51.726Z,1010.67
2016-08-09T12:13:51.646Z,1010.68
2016-08-09T12:14:51.584Z,1010.69
2016-08-09T12:15:51.509Z,1010.64
2016-08-09T12:16:51.410Z,1010.67